createdAt,value
2024-03-12T00:02:21.461Z,49.49
2024-03-12T00:04:47.854Z,49.97
2024-03-12T00:07:14.658Z,51.31
2024-03-12T00:09:41.172Z,50.95
2024-03-12T00:12:07.749Z,52.46
2024-03-12T00:14:34.817Z,52.94
2024-03-12T00:17:01.268Z,52.36
2024-03-12T00:19:28.038Z,51.66
2024-03-12T00:21:54.491Z,50.72
2024-03-12T00:24:20.885Z,50.34
2024-03-12T00:26:48.981Z,51.48
2024-03-12T00:29:16.563Z,52.59
2024-03-12T00:31:42.940Z,51.49
2024-03-12T00:34:11.811Z,51.09
2024-03-12T00:36:38.330Z,51.24
2024-03-12T00:39:04.718Z,51.11
2024-03-12T00:41:31.248Z,52.27
2024-03-12T00:43:57.662Z,54.20
2024-03-12T00:46:25.872Z,57.17
2024-03-12T00:48:52.254Z,58.70
2024-03-12T00:51:19.453Z,60.92
2024-03-12T00:53:45.857Z,61.52
2024-03-12T00:56:16.411Z,61.82
2024-03-12T00:58:43.265Z,61.04
2024-03-12T01:01:15.959Z,59.82
2024-03-12T01:03:43.677Z,57.40
2024-03-12T01:06:12.104Z,55.63
2024-03-12T01:08:38.537Z,57.46
2024-03-12T01:11:04.990Z,55.53
2024-03-12T01:13:31.423Z,52.96
2024-03-12T01:15:59.011Z,53.12
2024-03-12T01:18:25.469Z,53.48
2024-03-12T01:20:51.831Z,52.80
2024-03-12T01:23:18.179Z,54.98
2024-03-12T01:25:44.543Z,51.78
2024-03-12T01:28:11.654Z,52.14
2024-03-12T01:30:38.660Z,54.36
2024-03-12T01:33:06.879Z,53.39
2024-03-12T01:35:39.025Z,53.27
2024-03-12T01:38:05.524Z,52.58
2024-03-12T01:40:32.070Z,52.13
2024-03-12T01:43:02.497Z,55.12
2024-03-12T01:45:29.169Z,55.99
2024-03-12T01:47:56.106Z,53.64
2024-03-12T01:50:23.173Z,51.41
2024-03-12T01:52:49.635Z,51.28
2024-03-12T01:55:17.646Z,52.43
2024-03-12T01:57:44.291Z,49.69
2024-03-12T02:00:16.933Z,50.11
2024-03-12T02:02:43.554Z,50.44
2024-03-12T02:05:11.305Z,49.96
2024-03-12T02:07:48.036Z,50.79
2024-03-12T02:10:14.636Z,50.55
2024-03-12T02:12:41.504Z,51.75
2024-03-12T02:15:09.221Z,50.27
2024-03-12T02:17:35.798Z,48.74
2024-03-12T02:20:02.281Z,50.17
2024-03-12T02:22:32.793Z,51.81
2024-03-12T02:25:00.216Z,52.96
2024-03-12T02:27:27.016Z,50.67
2024-03-12T02:29:53.829Z,51.12
2024-03-12T02:32:20.218Z,50.75
2024-03-12T02:34:46.557Z,51.45
2024-03-12T02:37:12.996Z,53.44
2024-03-12T02:39:39.542Z,53.07
2024-03-12T02:42:06.296Z,52.73
2024-03-12T02:44:32.715Z,52.46
2024-03-12T02:46:59.066Z,50.90
2024-03-12T02:49:25.512Z,49.49
2024-03-12T02:51:52.985Z,47.76
2024-03-12T02:54:19.444Z,47.04
2024-03-12T02:56:45.860Z,46.00
2024-03-12T02:59:13.279Z,47.34
2024-03-12T03:01:39.981Z,46.54
2024-03-12T03:04:06.539Z,46.50
2024-03-12T03:06:32.992Z,46.33
2024-03-12T03:08:59.770Z,48.29
2024-03-12T03:11:26.457Z,52.16
2024-03-12T03:13:52.828Z,50.79
2024-03-12T03:16:21.425Z,48.95
2024-03-12T03:18:47.979Z,49.88
2024-03-12T03:21:15.307Z,49.95
2024-03-12T03:23:43.314Z,50.31
2024-03-12T03:26:09.840Z,52.27
2024-03-12T03:28:36.183Z,51.84
2024-03-12T03:31:02.716Z,52.85
2024-03-12T03:33:29.239Z,53.72
2024-03-12T03:35:55.712Z,55.58
2024-03-12T03:38:22.159Z,54.01
2024-03-12T03:40:48.769Z,52.31
2024-03-12T03:43:15.160Z,51.06
2024-03-12T03:45:41.560Z,51.40
2024-03-12T03:48:08.127Z,48.77
2024-03-12T03:50:34.530Z,47.37
2024-03-12T03:53:00.906Z,48.05
2024-03-12T03:55:27.275Z,49.55
2024-03-12T03:57:53.848Z,50.13
2024-03-12T04:00:24.639Z,51.72
2024-03-12T04:02:51.180Z,52.55
2024-03-12T04:05:17.702Z,52.87
2024-03-12T04:07:45.322Z,54.05
2024-03-12T04:10:12.085Z,53.62
2024-03-12T04:12:40.509Z,52.16
2024-03-12T04:15:07.517Z,49.71
2024-03-12T04:17:33.942Z,47.53
2024-03-12T04:20:00.390Z,46.82
2024-03-12T04:22:27.836Z,47.89
2024-03-12T04:24:54.252Z,49.45
2024-03-12T04:27:21.951Z,49.49
2024-03-12T04:29:48.674Z,49.11
2024-03-12T04:32:16.304Z,51.56
2024-03-12T04:34:42.677Z,50.11
2024-03-12T04:37:09.298Z,47.54
2024-03-12T04:39:37.106Z,49.43
2024-03-12T04:42:06.047Z,50.05
2024-03-12T04:44:35.171Z,51.10
2024-03-12T04:47:01.601Z,49.73
2024-03-12T04:49:28.167Z,47.80
2024-03-12T04:51:54.648Z,46.92
2024-03-12T04:54:21.174Z,48.96
2024-03-12T04:56:47.815Z,49.00
2024-03-12T04:59:16.101Z,49.87
2024-03-12T05:01:46.036Z,48.09
2024-03-12T05:04:18.563Z,46.64
2024-03-12T05:06:49.142Z,45.75
2024-03-12T05:09:19.011Z,44.88
2024-03-12T05:11:51.557Z,46.46
2024-03-12T05:14:17.979Z,50.09
2024-03-12T05:16:44.345Z,51.36
2024-03-12T05:19:12.259Z,52.56
2024-03-12T05:21:39.005Z,52.91
2024-03-12T05:24:05.815Z,53.75
2024-03-12T05:26:33.156Z,52.32
2024-03-12T05:28:59.622Z,50.63
2024-03-12T05:31:33.757Z,50.41
2024-03-12T05:34:03.693Z,48.89
2024-03-12T05:36:42.091Z,48.42
2024-03-12T05:39:49.126Z,49.07
2024-03-12T05:42:34.311Z,50.60
2024-03-12T05:45:19.120Z,50.38
2024-03-12T05:48:03.977Z,48.14
2024-03-12T05:50:30.391Z,50.91
2024-03-12T05:52:57.640Z,49.68
2024-03-12T05:55:23.996Z,49.77
2024-03-12T05:57:50.397Z,49.78
2024-03-12T06:00:17.160Z,48.23
2024-03-12T06:02:43.886Z,46.90
2024-03-12T06:05:13.768Z,48.86
2024-03-12T06:07:41.240Z,48.85
2024-03-12T06:10:08.634Z,47.90
2024-03-12T06:12:35.042Z,48.21
2024-03-12T06:15:01.383Z,47.63
2024-03-12T06:17:27.829Z,47.15
2024-03-12T06:19:54.318Z,49.14
2024-03-12T06:22:20.671Z,48.52
2024-03-12T06:24:49.273Z,48.12
2024-03-12T06:27:17.245Z,47.38
2024-03-12T06:29:44.943Z,46.72
2024-03-12T06:32:11.649Z,46.96
2024-03-12T06:34:37.997Z,46.54
2024-03-12T06:37:04.472Z,47.00
2024-03-12T06:39:34.015Z,47.97
2024-03-12T06:42:04.345Z,49.11
2024-03-12T06:44:33.114Z,48.67
2024-03-12T06:46:59.536Z,46.64
2024-03-12T06:49:25.868Z,47.35
2024-03-12T06:51:55.771Z,47.22
2024-03-12T06:54:22.314Z,48.13
2024-03-12T06:56:48.685Z,46.44
2024-03-12T06:59:17.992Z,45.74
2024-03-12T07:01:44.747Z,46.63
2024-03-12T07:04:11.860Z,49.02
2024-03-12T07:06:39.044Z,50.29
2024-03-12T07:09:13.538Z,49.04
2024-03-12T07:11:41.737Z,48.28
2024-03-12T07:14:24.193Z,47.88
2024-03-12T07:16:53.219Z,47.61
2024-03-12T07:19:20.889Z,51.68
2024-03-12T07:21:47.288Z,53.49
2024-03-12T07:24:13.714Z,52.71
2024-03-12T07:26:40.168Z,52.24
2024-03-12T07:29:10.680Z,53.12
2024-03-12T07:31:37.038Z,52.11
2024-03-12T07:34:03.651Z,50.72
2024-03-12T07:36:33.002Z,54.00
2024-03-12T07:38:59.439Z,52.76
2024-03-12T07:41:25.987Z,53.11
2024-03-12T07:43:52.323Z,54.51
2024-03-12T07:46:18.977Z,53.82
2024-03-12T07:48:45.590Z,53.09
2024-03-12T07:51:12.010Z,54.41
2024-03-12T07:53:38.369Z,54.29
2024-03-12T07:56:06.221Z,53.66
2024-03-12T07:58:32.572Z,54.01
2024-03-12T08:01:00.225Z,55.86
2024-03-12T08:03:27.307Z,55.99
2024-03-12T08:05:54.314Z,56.87
2024-03-12T08:08:20.707Z,56.09
2024-03-12T08:10:47.060Z,54.18
2024-03-12T08:13:13.539Z,53.76
2024-03-12T08:15:40.213Z,52.58
2024-03-12T08:18:13.467Z,50.47
2024-03-12T08:20:47.042Z,48.44
2024-03-12T08:23:15.266Z,49.96
2024-03-12T08:25:50.957Z,54.51
2024-03-12T08:28:22.808Z,55.82
2024-03-12T08:30:49.230Z,55.42
2024-03-12T08:33:18.686Z,54.41
2024-03-12T08:35:45.154Z,54.39
2024-03-12T08:38:11.539Z,53.95
2024-03-12T08:40:37.904Z,53.85
2024-03-12T08:43:06.312Z,52.38
2024-03-12T08:45:36.809Z,53.11
2024-03-12T08:48:04.735Z,51.63
2024-03-12T08:50:31.157Z,51.98
2024-03-12T08:52:58.844Z,53.11
2024-03-12T08:55:25.216Z,52.66
2024-03-12T08:57:52.495Z,53.30
2024-03-12T09:00:19.852Z,51.62
2024-03-12T09:02:46.591Z,50.79
2024-03-12T09:05:13.419Z,51.24
2024-03-12T09:07:39.793Z,50.20
2024-03-12T09:10:13.779Z,51.76
2024-03-12T09:12:41.878Z,50.50
2024-03-12T09:15:11.540Z,48.70
2024-03-12T09:17:38.597Z,51.32
2024-03-12T09:20:11.848Z,49.59
2024-03-12T09:22:38.744Z,48.72
2024-03-12T09:25:06.288Z,53.73
2024-03-12T09:27:32.963Z,56.17
2024-03-12T09:29:59.389Z,56.73
2024-03-12T09:32:25.993Z,57.36
2024-03-12T09:34:55.028Z,59.58
2024-03-12T09:37:22.044Z,59.32
2024-03-12T09:39:52.356Z,58.99
2024-03-12T09:42:19.234Z,57.62
2024-03-12T09:44:45.722Z,57.75
2024-03-12T09:47:12.707Z,59.47
2024-03-12T09:49:41.424Z,60.18
2024-03-12T09:52:07.989Z,59.05
2024-03-12T09:54:35.520Z,59.08
2024-03-12T09:57:02.517Z,58.63
2024-03-12T09:59:28.873Z,58.76
2024-03-12T10:01:55.303Z,57.20
2024-03-12T10:04:21.741Z,58.19
2024-03-12T10:06:50.314Z,56.19
2024-03-12T10:09:18.842Z,59.19
2024-03-12T10:11:46.164Z,58.18
2024-03-12T10:14:13.667Z,57.20
2024-03-12T10:16:40.109Z,58.27
2024-03-12T10:19:10.758Z,57.18
2024-03-12T10:21:41.561Z,55.47
2024-03-12T10:24:11.472Z,54.81
2024-03-12T10:26:37.905Z,54.83
2024-03-12T10:29:11.093Z,54.78
2024-03-12T10:31:40.876Z,55.09
2024-03-12T10:34:07.527Z,54.08
2024-03-12T10:36:34.494Z,54.42
2024-03-12T10:39:01.243Z,52.43
2024-03-12T10:41:27.649Z,52.41
2024-03-12T10:43:56.372Z,53.48
2024-03-12T10:46:22.966Z,53.36
2024-03-12T10:48:51.429Z,53.29
2024-03-12T10:51:18.657Z,51.38
2024-03-12T10:53:47.738Z,51.18
2024-03-12T10:56:16.062Z,49.58
2024-03-12T10:58:42.766Z,47.85
2024-03-12T11:01:11.439Z,47.61
2024-03-12T11:03:38.808Z,46.59
2024-03-12T11:06:05.226Z,45.67
2024-03-12T11:08:31.615Z,50.69
2024-03-12T11:10:58.349Z,50.62
2024-03-12T11:13:25.038Z,48.97
2024-03-12T11:15:52.446Z,48.10
2024-03-12T11:18:35.615Z,49.49
2024-03-12T11:21:04.955Z,46.81
2024-03-12T11:23:31.791Z,49.09
2024-03-12T11:25:58.440Z,49.96
2024-03-12T11:28:26.070Z,50.54
2024-03-12T11:30:55.572Z,49.52
2024-03-12T11:33:41.846Z,51.42
2024-03-12T11:36:11.739Z,50.50
2024-03-12T11:38:38.602Z,50.70
2024-03-12T11:41:05.062Z,50.58
2024-03-12T11:43:39.010Z,50.56
2024-03-12T11:46:08.676Z,48.78
2024-03-12T11:48:35.279Z,50.34
2024-03-12T11:51:02.209Z,49.63
2024-03-12T11:53:32.186Z,48.78
2024-03-12T11:56:09.627Z,48.01
2024-03-12T11:58:42.306Z,47.82
2024-03-12T12:01:10.391Z,47.14
2024-03-12T12:03:39.667Z,48.33
2024-03-12T12:06:07.409Z,47.44
2024-03-12T12:08:39.593Z,46.92
2024-03-12T12:11:12.452Z,48.20
2024-03-12T12:13:42.283Z,48.20
2024-03-12T12:16:11.674Z,46.33
2024-03-12T12:18:39.875Z,45.47
2024-03-12T12:21:16.094Z,46.15
2024-03-12T12:23:45.714Z,45.10
2024-03-12T12:26:15.597Z,44.14
2024-03-12T12:28:42.487Z,44.98
2024-03-12T12:31:12.971Z,44.92
2024-03-12T12:33:39.995Z,44.80
2024-03-12T12:36:09.291Z,47.54
2024-03-12T12:38:35.992Z,46.11
2024-03-12T12:41:02.954Z,45.62
2024-03-12T12:43:33.917Z,45.50
2024-03-12T12:46:00.578Z,43.00
2024-03-12T12:48:28.230Z,43.16
2024-03-12T12:50:55.666Z,43.79
2024-03-12T12:53:22.485Z,44.05
2024-03-12T12:55:58.425Z,42.02
2024-03-12T12:58:26.121Z,42.19
2024-03-12T13:01:05.582Z,40.80
2024-03-12T13:03:36.156Z,41.05
2024-03-12T13:06:13.539Z,39.62
2024-03-12T13:08:46.780Z,40.01
2024-03-12T13:11:13.824Z,40.09
2024-03-12T13:13:41.993Z,41.62
2024-03-12T13:16:09.742Z,41.52
2024-03-12T13:18:41.208Z,43.26
2024-03-12T13:21:08.257Z,42.83
2024-03-12T13:23:36.472Z,43.65
2024-03-12T13:26:02.918Z,42.78
2024-03-12T13:28:29.776Z,43.59
2024-03-12T13:30:57.384Z,41.97
2024-03-12T13:33:23.773Z,43.58
2024-03-12T13:35:52.812Z,41.60
2024-03-12T13:38:20.908Z,42.66
2024-03-12T13:40:47.373Z,42.73
2024-03-12T13:43:13.935Z,42.32
2024-03-12T13:45:42.644Z,42.01
2024-03-12T13:48:09.111Z,41.32
2024-03-12T13:50:35.533Z,41.39
2024-03-12T13:53:04.301Z,45.01
2024-03-12T13:55:30.683Z,42.75
2024-03-12T13:58:00.221Z,43.25
2024-03-12T14:00:27.842Z,43.18
2024-03-12T14:02:54.621Z,42.26
2024-03-12T14:05:22.027Z,42.48
2024-03-12T14:07:49.148Z,41.77
2024-03-12T14:10:15.587Z,39.76
2024-03-12T14:12:42.877Z,40.33
2024-03-12T14:15:10.009Z,40.22
2024-03-12T14:17:36.385Z,40.03
2024-03-12T14:20:11.971Z,40.88
2024-03-12T14:22:39.405Z,40.54
2024-03-12T14:25:08.224Z,40.80
2024-03-12T14:30:03.072Z,41.30
2024-03-12T14:32:29.438Z,39.76
2024-03-12T14:34:55.880Z,40.05
2024-03-12T14:37:22.277Z,40.73
2024-03-12T14:39:48.716Z,41.61
2024-03-12T14:42:15.113Z,40.78
2024-03-12T14:44:41.610Z,41.26
2024-03-12T14:47:10.863Z,40.55
2024-03-12T14:49:38.737Z,39.96
2024-03-12T14:52:05.988Z,39.75
2024-03-12T14:54:32.557Z,39.63
2024-03-12T14:56:59.020Z,39.53
2024-03-12T14:59:25.348Z,39.77
2024-03-12T15:01:51.784Z,39.64
2024-03-12T15:04:19.798Z,39.54
2024-03-12T15:06:46.295Z,40.21
2024-03-12T15:09:14.821Z,39.98
2024-03-12T15:11:42.574Z,41.50
2024-03-12T15:14:10.749Z,42.47
2024-03-12T15:16:37.899Z,42.31
2024-03-12T15:19:07.223Z,43.25
2024-03-12T15:21:33.770Z,43.30
2024-03-12T15:24:00.443Z,42.40
2024-03-12T15:26:26.830Z,42.08
2024-03-12T15:28:53.200Z,41.45
2024-03-12T15:31:19.619Z,41.90
2024-03-12T15:33:46.047Z,41.39
2024-03-12T15:36:12.379Z,41.90
2024-03-12T15:38:38.726Z,40.77
2024-03-12T15:41:07.189Z,40.91
2024-03-12T15:43:33.581Z,40.19
2024-03-12T15:46:00.099Z,39.55
2024-03-12T15:48:26.524Z,39.98
2024-03-12T15:50:53.146Z,41.68
2024-03-12T15:53:19.549Z,41.07
2024-03-12T15:55:47.926Z,41.23
2024-03-12T15:58:14.468Z,40.67
2024-03-12T16:00:43.112Z,41.24
2024-03-12T16:03:11.743Z,40.80
2024-03-12T16:05:38.520Z,40.50
2024-03-12T16:08:07.872Z,40.36
2024-03-12T16:10:34.937Z,41.07
2024-03-12T16:13:02.826Z,40.40
2024-03-12T16:15:29.185Z,40.07
2024-03-12T16:17:56.254Z,39.51
2024-03-12T16:20:23.105Z,39.04
2024-03-12T16:22:49.505Z,39.23
2024-03-12T16:25:15.868Z,43.39
2024-03-12T16:27:44.306Z,41.06
2024-03-12T16:30:12.513Z,39.70
2024-03-12T16:32:41.321Z,39.25
2024-03-12T16:35:10.830Z,40.61
2024-03-12T16:37:40.307Z,40.28
2024-03-12T16:40:11.884Z,40.55
2024-03-12T16:42:39.108Z,41.32
2024-03-12T16:45:06.526Z,40.61
2024-03-12T16:47:33.158Z,41.10
2024-03-12T16:50:05.611Z,40.57
2024-03-12T16:52:31.962Z,41.56
2024-03-12T16:54:58.406Z,39.46
2024-03-12T16:57:24.914Z,42.08
2024-03-12T16:59:56.952Z,41.31
2024-03-12T17:02:27.561Z,42.11
2024-03-12T17:04:57.746Z,42.62
2024-03-12T17:07:24.508Z,44.10
2024-03-12T17:09:51.150Z,41.43
2024-03-12T17:12:18.831Z,39.60
2024-03-12T17:14:47.484Z,38.43
2024-03-12T17:17:13.824Z,39.38
2024-03-12T17:19:40.228Z,37.40
2024-03-12T17:22:07.302Z,38.02
2024-03-12T17:24:35.217Z,38.21
2024-03-12T17:27:01.742Z,39.92
2024-03-12T17:29:28.181Z,40.83
2024-03-12T17:31:59.339Z,42.01
2024-03-12T17:34:25.998Z,40.33
2024-03-12T17:36:54.079Z,41.61
2024-03-12T17:39:21.097Z,41.42
2024-03-12T17:41:47.708Z,42.49
2024-03-12T17:44:14.378Z,42.37
2024-03-12T17:46:44.216Z,41.09
2024-03-12T17:49:17.362Z,43.11
2024-03-12T17:51:45.149Z,42.65
2024-03-12T17:54:17.321Z,43.64
2024-03-12T17:56:48.052Z,43.80
2024-03-12T17:59:19.929Z,41.91
2024-03-12T18:01:47.006Z,42.52
2024-03-12T18:04:14.181Z,43.58
2024-03-12T18:06:43.778Z,44.29
2024-03-12T18:09:13.489Z,43.21
2024-03-12T18:11:40.272Z,45.11
2024-03-12T18:14:07.391Z,42.87
2024-03-12T18:16:38.599Z,42.99
2024-03-12T18:19:06.740Z,43.48
2024-03-12T18:21:33.741Z,44.21
2024-03-12T18:24:01.520Z,42.99
2024-03-12T18:26:28.587Z,42.83
2024-03-12T18:28:57.623Z,43.34
2024-03-12T18:31:24.357Z,44.23
2024-03-12T18:33:50.922Z,44.85
2024-03-12T18:36:18.601Z,43.65
2024-03-12T18:38:45.023Z,42.69
2024-03-12T18:41:13.377Z,42.23
2024-03-12T18:43:40.698Z,43.54
2024-03-12T18:46:07.199Z,43.42
2024-03-12T18:48:33.694Z,43.05
2024-03-12T18:51:00.203Z,42.03
2024-03-12T18:53:26.859Z,42.58
2024-03-12T18:55:53.975Z,43.58
2024-03-12T18:58:20.583Z,44.57
2024-03-12T19:00:47.180Z,45.54
2024-03-12T19:03:15.723Z,44.79
2024-03-12T19:05:42.481Z,46.35
2024-03-12T19:08:09.771Z,45.10
2024-03-12T19:10:37.102Z,43.16
2024-03-12T19:13:07.398Z,42.95
2024-03-12T19:15:38.033Z,43.60
2024-03-12T19:18:07.794Z,44.27
2024-03-12T19:20:34.354Z,42.90
2024-03-12T19:23:00.902Z,42.81
2024-03-12T19:25:27.682Z,43.09
2024-03-12T19:27:54.329Z,42.12
2024-03-12T19:30:21.064Z,42.58
2024-03-12T19:32:49.106Z,43.18
2024-03-12T19:35:15.644Z,43.48
2024-03-12T19:37:42.915Z,44.77
2024-03-12T19:40:21.038Z,45.96
2024-03-12T19:42:49.439Z,45.88
2024-03-12T19:45:19.830Z,45.31
2024-03-12T19:47:49.950Z,44.72
2024-03-12T19:50:26.086Z,44.07
2024-03-12T19:52:54.631Z,44.09
2024-03-12T19:55:25.441Z,43.43
2024-03-12T19:57:56.146Z,44.05
2024-03-12T20:00:24.057Z,43.84
2024-03-12T20:02:50.616Z,43.07
2024-03-12T20:05:17.066Z,43.07
2024-03-12T20:07:46.945Z,42.37
2024-03-12T20:10:14.662Z,41.59
2024-03-12T20:12:41.213Z,42.99
2024-03-12T20:15:14.254Z,44.04
2024-03-12T20:17:42.057Z,42.33
2024-03-12T20:20:15.605Z,43.30
2024-03-12T20:22:42.191Z,43.89
2024-03-12T20:25:09.649Z,44.39
2024-03-12T20:27:39.394Z,44.68
2024-03-12T20:30:06.704Z,43.55
2024-03-12T20:32:33.297Z,44.96
2024-03-12T20:34:59.729Z,43.61
2024-03-12T20:37:26.202Z,42.93
2024-03-12T20:39:52.740Z,43.26
2024-03-12T20:42:19.929Z,42.83
2024-03-12T20:44:46.321Z,43.45
2024-03-12T20:47:14.517Z,43.11
2024-03-12T20:49:44.595Z,42.79
2024-03-12T20:52:12.482Z,43.66
2024-03-12T20:54:39.832Z,44.36
2024-03-12T20:57:06.633Z,44.68
2024-03-12T20:59:32.977Z,42.97
2024-03-12T21:01:59.435Z,43.33
2024-03-12T21:04:25.929Z,43.56
2024-03-12T21:06:52.370Z,44.34
2024-03-12T21:09:25.062Z,45.95
2024-03-12T21:11:56.176Z,46.51
2024-03-12T21:14:23.118Z,45.27
2024-03-12T21:16:49.621Z,44.94
2024-03-12T21:19:16.366Z,47.07
2024-03-12T21:21:44.549Z,47.07
2024-03-12T21:24:10.926Z,46.77
2024-03-12T21:26:38.865Z,46.05
2024-03-12T21:29:07.514Z,47.68
2024-03-12T21:31:34.266Z,45.26
2024-03-12T21:34:01.904Z,44.56
2024-03-12T21:36:28.417Z,44.21
2024-03-12T21:38:54.753Z,46.90
2024-03-12T21:41:21.112Z,46.76
2024-03-12T21:43:47.490Z,47.50
2024-03-12T21:46:13.872Z,46.94
2024-03-12T21:48:40.283Z,47.94
2024-03-12T21:51:08.418Z,48.13
2024-03-12T21:53:35.405Z,50.28
2024-03-12T21:56:02.293Z,52.58
2024-03-12T21:58:28.721Z,52.63
2024-03-12T22:00:55.129Z,52.40
2024-03-12T22:03:21.847Z,52.61
2024-03-12T22:05:48.216Z,51.87
2024-03-12T22:08:14.589Z,53.14
2024-03-12T22:10:41.060Z,50.17
2024-03-12T22:13:08.200Z,51.73
2024-03-12T22:15:37.272Z,49.86
2024-03-12T22:18:03.759Z,48.38
2024-03-12T22:20:30.143Z,51.87
2024-03-12T22:22:56.468Z,52.03
2024-03-12T22:25:23.521Z,52.54
2024-03-12T22:27:50.689Z,51.53
2024-03-12T22:30:21.182Z,51.13
2024-03-12T22:32:48.771Z,51.11
2024-03-12T22:35:16.282Z,51.21
2024-03-12T22:37:44.487Z,51.65
2024-03-12T22:40:13.293Z,50.43
2024-03-12T22:42:39.882Z,49.45
2024-03-12T22:45:07.296Z,49.59
2024-03-12T22:47:33.836Z,49.59
2024-03-12T22:50:00.504Z,48.30
2024-03-12T22:52:27.602Z,51.45
2024-03-12T22:54:55.493Z,50.60
2024-03-12T22:57:24.982Z,49.65
2024-03-12T22:59:54.620Z,52.70
2024-03-12T23:02:21.558Z,51.67
2024-03-12T23:04:54.667Z,53.90
2024-03-12T23:07:21.125Z,51.29
2024-03-12T23:09:49.172Z,51.57
2024-03-12T23:12:16.188Z,52.94
2024-03-12T23:14:42.609Z,51.82
2024-03-12T23:17:09.119Z,50.83
2024-03-12T23:19:40.776Z,50.77
2024-03-12T23:22:07.594Z,51.68
2024-03-12T23:24:34.099Z,53.41
2024-03-12T23:27:00.434Z,52.80
2024-03-12T23:29:26.808Z,53.85
2024-03-12T23:31:54.844Z,55.20
2024-03-12T23:34:22.259Z,54.96
2024-03-12T23:36:48.844Z,54.46
2024-03-12T23:39:16.390Z,53.48
2024-03-12T23:41:42.854Z,54.41
2024-03-12T23:44:13.812Z,55.02
2024-03-12T23:46:40.153Z,54.79
2024-03-12T23:49:07.671Z,51.43
2024-03-12T23:51:34.423Z,54.07
2024-03-12T23:54:01.411Z,54.99
2024-03-12T23:56:27.757Z,52.28
2024-03-12T23:58:55.401Z,51.78
